createdAt,value
2022-12-11T00:00:54.045Z,2.49
2022-12-11T00:03:21.375Z,2.46
2022-12-11T00:05:48.603Z,2.42
2022-12-11T00:08:15.962Z,2.43
2022-12-11T00:10:50.162Z,2.41
2022-12-11T00:13:17.533Z,2.38
2022-12-11T00:15:44.694Z,2.31
2022-12-11T00:18:14.792Z,2.35
2022-12-11T00:20:42.289Z,2.36
2022-12-11T00:23:09.537Z,2.40
2022-12-11T00:25:41.926Z,2.38
2022-12-11T00:28:09.126Z,2.36
2022-12-11T00:30:42.991Z,2.38
2022-12-11T00:33:12.049Z,2.41
2022-12-11T00:35:46.834Z,2.44
2022-12-11T00:38:21.094Z,2.40
2022-12-11T00:40:49.061Z,2.40
2022-12-11T00:43:17.008Z,2.38
2022-12-11T00:45:46.791Z,2.40
2022-12-11T00:48:14.426Z,2.40
2022-12-11T00:50:41.823Z,2.45
2022-12-11T00:53:09.230Z,2.43
2022-12-11T00:55:42.775Z,2.43
2022-12-11T00:58:12.054Z,2.42
2022-12-11T01:00:41.731Z,2.42
2022-12-11T01:03:09.634Z,2.39
2022-12-11T01:05:36.904Z,2.39
2022-12-11T01:08:04.523Z,2.37
2022-12-11T01:10:33.014Z,2.32
2022-12-11T01:13:06.831Z,2.33
2022-12-11T01:15:41.845Z,2.32
2022-12-11T01:18:12.053Z,2.29
2022-12-11T01:20:41.600Z,2.26
2022-12-11T01:23:12.199Z,2.24
2022-12-11T01:25:40.989Z,2.20
2022-12-11T01:28:09.585Z,2.21
2022-12-11T01:30:37.361Z,2.19
2022-12-11T01:33:04.671Z,2.24
2022-12-11T01:35:31.904Z,2.24
2022-12-11T01:37:59.260Z,2.15
2022-12-11T01:40:26.667Z,2.15
2022-12-11T01:42:53.878Z,2.14
2022-12-11T01:45:43.673Z,2.14
2022-12-11T01:48:27.410Z,2.12
2022-12-11T01:51:02.842Z,2.09
2022-12-11T01:53:36.638Z,2.11
2022-12-11T01:56:06.714Z,2.14
2022-12-11T01:58:42.528Z,2.12
2022-12-11T02:01:21.710Z,2.13
2022-12-11T02:03:50.579Z,2.12
2022-12-11T02:06:37.563Z,2.08
2022-12-11T02:09:14.224Z,2.08
2022-12-11T02:12:06.706Z,2.05
2022-12-11T02:15:11.573Z,2.06
2022-12-11T02:18:26.056Z,2.01
2022-12-11T02:21:23.761Z,1.97
2022-12-11T02:23:54.266Z,1.96
2022-12-11T02:26:42.657Z,1.92
2022-12-11T02:29:20.208Z,1.88
2022-12-11T02:31:59.018Z,1.91
2022-12-11T02:34:40.442Z,1.90
2022-12-11T02:37:16.565Z,1.87
2022-12-11T02:39:49.008Z,1.87
2022-12-11T02:42:19.685Z,1.83
2022-12-11T02:44:50.680Z,1.83
2022-12-11T02:47:21.084Z,1.86
2022-12-11T02:49:52.143Z,1.85
2022-12-11T02:52:25.752Z,1.81
2022-12-11T02:54:58.091Z,1.82
2022-12-11T02:57:42.677Z,1.77
2022-12-11T03:00:11.684Z,1.71
2022-12-11T03:02:41.195Z,1.68
2022-12-11T03:05:12.609Z,1.55
2022-12-11T03:07:43.836Z,1.51
2022-12-11T03:10:17.493Z,1.45
2022-12-11T03:12:53.358Z,1.27
2022-12-11T03:15:27.686Z,1.22
2022-12-11T03:18:36.354Z,1.23
2022-12-11T03:21:16.602Z,1.15
2022-12-11T03:24:03.111Z,1.09
2022-12-11T03:26:39.541Z,0.97
2022-12-11T03:29:35.203Z,0.77
2022-12-11T03:32:21.472Z,0.84
2022-12-11T03:35:00.964Z,0.80
2022-12-11T03:37:34.171Z,0.89
2022-12-11T03:40:10.662Z,0.90
2022-12-11T03:42:41.931Z,0.76
2022-12-11T03:45:11.482Z,0.84
2022-12-11T03:47:42.287Z,0.74
2022-12-11T03:50:13.977Z,0.64
2022-12-11T03:52:46.205Z,0.61
2022-12-11T03:55:17.404Z,0.60
2022-12-11T03:57:45.142Z,0.52
2022-12-11T04:00:18.106Z,0.48
2022-12-11T04:02:46.583Z,0.51
2022-12-11T04:05:14.514Z,0.47
2022-12-11T04:07:41.933Z,0.53
2022-12-11T04:10:10.094Z,0.56
2022-12-11T04:12:38.274Z,0.52
2022-12-11T04:15:06.541Z,0.58
2022-12-11T04:17:37.117Z,0.61
2022-12-11T04:20:06.408Z,0.55
2022-12-11T04:22:33.542Z,0.53
2022-12-11T04:25:02.701Z,0.55
2022-12-11T04:27:30.853Z,0.58
2022-12-11T04:29:58.736Z,0.52
2022-12-11T04:32:26.913Z,0.47
2022-12-11T04:34:59.032Z,0.50
2022-12-11T04:37:28.825Z,0.43
2022-12-11T04:39:56.055Z,0.34
2022-12-11T04:42:23.450Z,0.25
2022-12-11T04:44:54.692Z,0.28
2022-12-11T04:47:22.045Z,0.26
2022-12-11T04:49:49.336Z,0.29
2022-12-11T04:52:18.125Z,0.31
2022-12-11T04:54:46.265Z,0.37
2022-12-11T04:57:15.110Z,0.30
2022-12-11T04:59:42.329Z,0.29
2022-12-11T05:02:09.616Z,0.24
2022-12-11T05:04:36.838Z,0.18
2022-12-11T05:07:04.236Z,0.21
2022-12-11T05:09:31.523Z,0.14
2022-12-11T05:11:58.675Z,-0.02
2022-12-11T05:14:25.904Z,0.03
2022-12-11T05:16:53.376Z,0.05
2022-12-11T05:19:20.528Z,-0.04
2022-12-11T05:21:47.700Z,0.03
2022-12-11T05:24:14.850Z,-0.02
2022-12-11T05:26:42.233Z,0.06
2022-12-11T05:29:09.553Z,0.03
2022-12-11T05:31:36.878Z,-0.01
2022-12-11T05:34:04.126Z,-0.11
2022-12-11T05:36:34.879Z,-0.06
2022-12-11T05:39:05.063Z,-0.04
2022-12-11T05:41:33.946Z,-0.02
2022-12-11T05:44:01.389Z,-0.04
2022-12-11T05:46:30.828Z,-0.15
2022-12-11T05:49:01.894Z,-0.21
2022-12-11T05:51:31.115Z,-0.50
2022-12-11T05:53:58.605Z,-0.57
2022-12-11T05:56:32.772Z,-0.63
2022-12-11T05:59:01.627Z,-0.70
2022-12-11T06:01:42.676Z,-0.78
2022-12-11T06:04:12.482Z,-0.66
2022-12-11T06:06:41.098Z,-0.58
2022-12-11T06:09:08.645Z,-0.46
2022-12-11T06:11:36.515Z,-0.45
2022-12-11T06:14:04.513Z,-0.41
2022-12-11T06:16:32.741Z,-0.39
2022-12-11T06:19:00.153Z,-0.38
2022-12-11T06:21:31.330Z,-0.36
2022-12-11T06:24:01.256Z,-0.30
2022-12-11T06:26:30.179Z,-0.26
2022-12-11T06:28:57.831Z,-0.23
2022-12-11T06:31:25.685Z,-0.23
2022-12-11T06:33:53.444Z,-0.22
2022-12-11T06:36:24.457Z,-0.15
2022-12-11T06:38:59.976Z,-0.18
2022-12-11T06:41:33.832Z,-0.20
2022-12-11T06:44:02.877Z,-0.25
2022-12-11T06:46:51.440Z,-0.26
2022-12-11T06:49:18.734Z,-0.36
2022-12-11T06:51:56.875Z,-0.37
2022-12-11T06:57:47.742Z,-0.39
2022-12-11T07:00:48.258Z,-0.39
2022-12-11T07:03:18.867Z,-0.41
2022-12-11T07:05:46.009Z,-0.42
2022-12-11T07:08:13.215Z,-0.45
2022-12-11T07:10:40.580Z,-0.44
2022-12-11T07:13:26.547Z,-0.38
2022-12-11T07:16:00.782Z,-0.33
2022-12-11T07:18:28.748Z,-0.34
2022-12-11T07:20:59.442Z,-0.38
2022-12-11T07:23:28.196Z,-0.38
2022-12-11T07:25:56.947Z,-0.42
2022-12-11T07:28:24.751Z,-0.46
2022-12-11T07:30:51.937Z,-0.48
2022-12-11T07:33:19.161Z,-0.43
2022-12-11T07:35:46.397Z,-0.36
2022-12-11T07:38:13.638Z,-0.36
2022-12-11T07:40:40.878Z,-0.39
2022-12-11T07:43:08.126Z,-0.37
2022-12-11T07:45:35.848Z,-0.33
2022-12-11T07:48:03.970Z,-0.31
2022-12-11T07:50:35.129Z,-0.31
2022-12-11T07:53:05.350Z,-0.30
2022-12-11T07:55:33.003Z,-0.38
2022-12-11T07:58:00.193Z,-0.47
2022-12-11T08:00:27.326Z,-0.40
2022-12-11T08:02:54.603Z,-0.36
2022-12-11T08:05:21.795Z,-0.30
2022-12-11T08:07:49.060Z,-0.34
2022-12-11T08:10:16.283Z,-0.37
2022-12-11T08:12:43.685Z,-0.26
2022-12-11T08:15:11.719Z,-0.24
2022-12-11T08:17:40.290Z,-0.31
2022-12-11T08:20:08.436Z,-0.38
2022-12-11T08:22:35.795Z,-0.40
2022-12-11T08:25:03.220Z,-0.33
2022-12-11T08:27:30.462Z,-0.37
2022-12-11T08:29:57.769Z,-0.31
2022-12-11T08:32:24.941Z,-0.34
2022-12-11T08:34:52.262Z,-0.38
2022-12-11T08:37:20.283Z,-0.36
2022-12-11T08:39:47.536Z,-0.38
2022-12-11T08:42:14.839Z,-0.36
2022-12-11T08:44:42.369Z,-0.37
2022-12-11T08:47:09.619Z,-0.40
2022-12-11T08:49:37.015Z,-0.33
2022-12-11T08:52:05.830Z,-0.43
2022-12-11T08:54:33.317Z,-0.54
2022-12-11T08:57:00.544Z,-0.58
2022-12-11T08:59:27.897Z,-0.70
2022-12-11T09:01:56.349Z,-0.75
2022-12-11T09:04:24.093Z,-0.83
2022-12-11T09:06:51.331Z,-0.93
2022-12-11T09:09:18.856Z,-0.91
2022-12-11T09:11:46.079Z,-0.92
2022-12-11T09:14:13.246Z,-0.88
2022-12-11T09:16:41.001Z,-0.86
2022-12-11T09:19:13.990Z,-0.83
2022-12-11T09:21:43.056Z,-0.84
2022-12-11T09:24:12.745Z,-0.93
2022-12-11T09:26:40.909Z,-0.86
2022-12-11T09:29:12.976Z,-0.85
2022-12-11T09:31:41.001Z,-0.83
2022-12-11T09:34:12.349Z,-0.74
2022-12-11T09:36:41.556Z,-0.67
2022-12-11T09:39:11.869Z,-0.57
2022-12-11T09:42:13.003Z,-0.55
2022-12-11T09:45:00.134Z,-0.50
2022-12-11T09:48:00.631Z,-0.45
2022-12-11T09:50:34.315Z,-0.51
2022-12-11T09:53:23.814Z,-0.52
2022-12-11T09:56:16.546Z,-0.60
2022-12-11T09:59:18.552Z,-0.64
2022-12-11T10:02:24.725Z,-0.65
2022-12-11T10:05:20.806Z,-0.75
2022-12-11T10:08:06.057Z,-0.65
2022-12-11T10:10:47.371Z,-0.59
2022-12-11T10:13:43.200Z,-0.55
2022-12-11T10:16:13.149Z,-0.53
2022-12-11T10:18:42.041Z,-0.56
2022-12-11T10:21:12.219Z,-0.58
2022-12-11T10:24:02.746Z,-0.61
2022-12-11T10:26:30.374Z,-0.59
2022-12-11T10:29:02.746Z,-0.57
2022-12-11T10:31:52.520Z,-0.59
2022-12-11T10:34:34.374Z,-0.67
2022-12-11T10:37:02.318Z,-0.71
2022-12-11T10:39:30.177Z,-0.65
2022-12-11T10:41:58.233Z,-0.64
2022-12-11T10:44:30.638Z,-0.71
2022-12-11T10:47:15.230Z,-0.70
2022-12-11T10:49:58.173Z,-0.66
2022-12-11T10:52:35.555Z,-0.69
2022-12-11T10:55:16.781Z,-0.73
2022-12-11T10:57:44.585Z,-0.68
2022-12-11T11:00:36.606Z,-0.82
2022-12-11T11:03:20.007Z,-0.76
2022-12-11T11:05:49.503Z,-0.74
2022-12-11T11:08:21.607Z,-0.77
2022-12-11T11:10:58.565Z,-0.82
2022-12-11T11:13:29.952Z,-0.80
2022-12-11T11:16:08.635Z,-0.79
2022-12-11T11:18:36.502Z,-0.80
2022-12-11T11:21:04.017Z,-0.81
2022-12-11T11:23:31.629Z,-0.80
2022-12-11T11:26:01.988Z,-0.85
2022-12-11T11:28:40.686Z,-0.88
2022-12-11T11:31:14.052Z,-0.82
2022-12-11T11:34:06.071Z,-0.86
2022-12-11T11:36:37.252Z,-0.93
2022-12-11T11:39:21.434Z,-1.03
2022-12-11T11:42:15.407Z,-1.15
2022-12-11T11:45:01.481Z,-1.09
2022-12-11T11:47:40.620Z,-1.13
2022-12-11T11:50:26.674Z,-1.16
2022-12-11T11:53:11.995Z,-1.10
2022-12-11T11:56:38.217Z,-1.09
2022-12-11T11:59:11.795Z,-1.10
2022-12-11T12:01:43.420Z,-1.04
2022-12-11T12:04:12.146Z,-1.01
2022-12-11T12:07:23.211Z,-0.97
2022-12-11T12:10:22.272Z,-1.13
2022-12-11T12:13:48.139Z,-1.17
2022-12-11T12:16:52.312Z,-1.25
2022-12-11T12:19:35.903Z,-1.24
2022-12-11T12:22:45.712Z,-1.26
2022-12-11T12:25:26.712Z,-1.16
2022-12-11T12:28:21.276Z,-1.09
2022-12-11T12:31:23.781Z,-1.16
2022-12-11T12:34:15.218Z,-1.18
2022-12-11T12:37:11.446Z,-1.19
2022-12-11T12:40:09.865Z,-1.13
2022-12-11T12:43:28.731Z,-1.08
2022-12-11T12:46:11.739Z,-1.12
2022-12-11T12:48:39.874Z,-1.09
2022-12-11T12:51:13.234Z,-1.06
2022-12-11T12:53:58.454Z,-1.02
2022-12-11T12:56:29.604Z,-0.98
2022-12-11T12:58:57.777Z,-1.02
2022-12-11T13:01:30.181Z,-1.06
2022-12-11T13:04:20.758Z,-1.01
2022-12-11T13:06:54.951Z,-1.06
2022-12-11T13:09:26.592Z,-1.16
2022-12-11T13:11:57.038Z,-1.34
2022-12-11T13:14:33.464Z,-1.34
2022-12-11T13:17:34.773Z,-1.25
2022-12-11T13:20:20.200Z,-1.17
2022-12-11T13:22:54.064Z,-1.22
2022-12-11T13:25:31.034Z,-1.17
2022-12-11T13:28:19.534Z,-1.15
2022-12-11T13:31:02.605Z,-1.26
2022-12-11T13:33:30.597Z,-1.14
2022-12-11T13:36:24.072Z,-1.10
2022-12-11T13:39:25.981Z,-1.15
2022-12-11T13:41:59.773Z,-1.15
2022-12-11T13:44:31.176Z,-1.32
2022-12-11T13:47:03.046Z,-1.30
2022-12-11T13:49:40.757Z,-1.25
2022-12-11T13:52:08.193Z,-1.31
2022-12-11T13:54:36.528Z,-1.34
2022-12-11T13:57:19.920Z,-1.36
2022-12-11T13:59:54.129Z,-1.36
2022-12-11T14:02:32.650Z,-1.46
2022-12-11T14:05:07.529Z,-1.43
2022-12-11T14:07:42.200Z,-1.40
2022-12-11T14:10:19.827Z,-1.40
2022-12-11T14:12:53.283Z,-1.42
2022-12-11T14:15:21.214Z,-1.39
2022-12-11T14:17:51.910Z,-1.38
2022-12-11T14:20:32.705Z,-1.38
2022-12-11T14:23:23.216Z,-1.41
2022-12-11T14:26:22.878Z,-1.51
2022-12-11T14:28:50.931Z,-1.59
2022-12-11T14:31:44.509Z,-1.64
2022-12-11T14:34:37.449Z,-1.61
2022-12-11T14:37:08.173Z,-1.61
2022-12-11T14:39:46.854Z,-1.74
2022-12-11T14:42:28.942Z,-1.72
2022-12-11T14:45:02.973Z,-1.65
2022-12-11T14:47:42.279Z,-1.60
2022-12-11T14:50:23.599Z,-1.70
2022-12-11T14:53:03.970Z,-1.82
2022-12-11T14:55:36.145Z,-1.83
2022-12-11T14:58:13.819Z,-1.82
2022-12-11T15:00:41.184Z,-1.78
2022-12-11T15:03:17.507Z,-1.77
2022-12-11T15:05:59.281Z,-1.79
2022-12-11T15:08:29.249Z,-1.79
2022-12-11T15:11:05.187Z,-1.72
2022-12-11T15:13:36.617Z,-1.69
2022-12-11T15:16:12.268Z,-1.64
2022-12-11T15:18:45.266Z,-1.60
2022-12-11T15:21:13.516Z,-1.57
2022-12-11T15:24:00.412Z,-1.53
2022-12-11T15:26:45.327Z,-1.57
2022-12-11T15:29:37.758Z,-1.61
2022-12-11T15:32:22.375Z,-1.59
2022-12-11T15:34:59.995Z,-1.60
2022-12-11T15:37:34.066Z,-1.61
2022-12-11T15:40:04.992Z,-1.54
2022-12-11T15:42:42.168Z,-1.51
2022-12-11T15:45:19.308Z,-1.60
2022-12-11T15:47:48.437Z,-1.61
2022-12-11T15:50:28.747Z,-1.56
2022-12-11T15:52:57.848Z,-1.55
2022-12-11T15:55:29.495Z,-1.56
2022-12-11T15:58:02.724Z,-1.57
2022-12-11T16:00:30.643Z,-1.58
2022-12-11T16:02:58.987Z,-1.63
2022-12-11T16:05:27.412Z,-1.65
2022-12-11T16:07:54.803Z,-1.64
2022-12-11T16:10:23.955Z,-1.67
2022-12-11T16:12:51.252Z,-1.72
2022-12-11T16:15:23.457Z,-1.72
2022-12-11T16:18:00.322Z,-1.76
2022-12-11T16:20:27.658Z,-1.76
2022-12-11T16:22:54.998Z,-1.77
2022-12-11T16:25:22.238Z,-1.76
2022-12-11T16:27:49.552Z,-1.77
2022-12-11T16:30:16.821Z,-1.83
2022-12-11T16:32:44.588Z,-1.85
2022-12-11T16:35:12.359Z,-1.84
2022-12-11T16:37:39.931Z,-1.85
2022-12-11T16:40:09.965Z,-1.93
2022-12-11T16:42:38.671Z,-1.92
2022-12-11T16:45:14.157Z,-1.92
2022-12-11T16:47:43.014Z,-1.96
2022-12-11T16:50:12.579Z,-1.96
2022-12-11T16:52:42.390Z,-1.99
2022-12-11T16:55:13.488Z,-2.03
2022-12-11T16:57:42.884Z,-2.08
2022-12-11T17:00:13.667Z,-2.16
2022-12-11T17:02:41.002Z,-2.24
2022-12-11T17:05:09.287Z,-2.31
2022-12-11T17:07:40.565Z,-2.34
2022-12-11T17:10:09.158Z,-2.38
2022-12-11T17:12:36.605Z,-2.44
2022-12-11T17:15:04.605Z,-2.42
2022-12-11T17:17:32.141Z,-2.50
2022-12-11T17:19:59.419Z,-2.52
2022-12-11T17:22:27.337Z,-2.56
2022-12-11T17:25:00.425Z,-2.54
2022-12-11T17:27:27.785Z,-2.55
2022-12-11T17:29:55.836Z,-2.64
2022-12-11T17:32:23.030Z,-2.68
2022-12-11T17:34:51.090Z,-2.73
2022-12-11T17:37:18.968Z,-2.70
2022-12-11T17:39:46.209Z,-2.74
2022-12-11T17:42:13.750Z,-2.82
2022-12-11T17:44:40.899Z,-2.86
2022-12-11T17:47:11.167Z,-2.88
2022-12-11T17:49:40.434Z,-2.96
2022-12-11T17:52:08.443Z,-2.92
2022-12-11T17:54:35.767Z,-2.93
2022-12-11T17:57:02.971Z,-2.95
2022-12-11T17:59:30.201Z,-2.96
2022-12-11T18:01:57.478Z,-3.00
2022-12-11T18:04:25.330Z,-3.07
2022-12-11T18:06:52.730Z,-3.14
2022-12-11T18:09:19.921Z,-3.28
2022-12-11T18:11:47.160Z,-3.27
2022-12-11T18:14:17.486Z,-3.20
2022-12-11T18:16:45.070Z,-3.27
2022-12-11T18:19:12.975Z,-3.25
2022-12-11T18:21:44.084Z,-3.26
2022-12-11T18:24:11.867Z,-3.30
2022-12-11T18:26:39.018Z,-3.34
2022-12-11T18:29:06.297Z,-3.36
2022-12-11T18:31:48.579Z,-3.39
2022-12-11T18:34:16.691Z,-3.44
2022-12-11T18:36:44.564Z,-3.49
2022-12-11T18:39:11.896Z,-3.54
2022-12-11T18:41:39.157Z,-3.61
2022-12-11T18:44:09.895Z,-3.66
2022-12-11T18:46:38.964Z,-3.70
2022-12-11T18:49:07.012Z,-3.73
2022-12-11T18:51:34.578Z,-3.77
2022-12-11T18:54:06.099Z,-3.79
2022-12-11T18:56:33.528Z,-3.89
2022-12-11T18:59:01.345Z,-3.91
2022-12-11T19:01:30.112Z,-3.90
2022-12-11T19:04:05.295Z,-3.93
2022-12-11T19:06:39.276Z,-3.98
2022-12-11T19:09:17.125Z,-4.00
2022-12-11T19:11:49.611Z,-4.09
2022-12-11T19:14:16.993Z,-4.15
2022-12-11T19:16:45.151Z,-4.24
2022-12-11T19:19:17.577Z,-4.24
2022-12-11T19:21:46.208Z,-4.24
2022-12-11T19:24:18.365Z,-4.26
2022-12-11T19:26:46.317Z,-4.32
2022-12-11T19:29:28.262Z,-4.48
2022-12-11T19:31:56.560Z,-4.54
2022-12-11T19:34:24.619Z,-4.60
2022-12-11T19:36:52.171Z,-4.67
2022-12-11T19:39:19.520Z,-4.73
2022-12-11T19:41:47.368Z,-4.82
2022-12-11T19:44:14.804Z,-4.88
2022-12-11T19:46:42.351Z,-4.89
2022-12-11T19:49:11.780Z,-4.88
2022-12-11T19:51:42.335Z,-4.92
2022-12-11T19:54:14.980Z,-4.92
2022-12-11T19:56:43.164Z,-4.94
2022-12-11T19:59:16.231Z,-5.03
2022-12-11T20:01:45.534Z,-5.09
2022-12-11T20:04:15.432Z,-5.09
2022-12-11T20:06:45.398Z,-5.16
2022-12-11T20:09:14.236Z,-5.21
2022-12-11T20:11:44.220Z,-5.30
2022-12-11T20:14:21.440Z,-5.31
2022-12-11T20:19:36.995Z,-5.39
2022-12-11T20:22:04.288Z,-5.40
2022-12-11T20:24:31.484Z,-5.39
2022-12-11T20:26:58.689Z,-5.37
2022-12-11T20:29:25.935Z,-5.42
2022-12-11T20:31:53.351Z,-5.50
2022-12-11T20:34:20.818Z,-5.51
2022-12-11T20:36:49.302Z,-5.66
2022-12-11T20:39:16.530Z,-5.74
2022-12-11T20:41:43.719Z,-5.73
2022-12-11T20:44:10.969Z,-5.74
2022-12-11T20:46:38.153Z,-5.79
2022-12-11T20:49:05.314Z,-5.84
2022-12-11T20:51:32.481Z,-5.78
2022-12-11T20:53:59.801Z,-5.80
2022-12-11T20:56:31.557Z,-5.75
2022-12-11T20:59:00.274Z,-5.74
2022-12-11T21:01:32.035Z,-5.78
2022-12-11T21:04:00.722Z,-5.78
2022-12-11T21:06:35.246Z,-5.82
2022-12-11T21:09:12.152Z,-5.86
2022-12-11T21:11:40.166Z,-5.98
2022-12-11T21:14:07.518Z,-6.03
2022-12-11T21:16:37.389Z,-6.09
2022-12-11T21:19:05.836Z,-6.11
2022-12-11T21:21:36.042Z,-6.17
2022-12-11T21:24:04.116Z,-6.15
2022-12-11T21:26:31.303Z,-6.26
2022-12-11T21:28:58.905Z,-6.28
2022-12-11T21:31:26.561Z,-6.30
2022-12-11T21:33:54.198Z,-6.29
2022-12-11T21:36:21.455Z,-6.28
2022-12-11T21:38:49.034Z,-6.26
2022-12-11T21:41:21.778Z,-6.27
2022-12-11T21:46:40.120Z,-6.27
2022-12-11T21:49:07.827Z,-6.25
2022-12-11T21:51:42.678Z,-6.26
2022-12-11T21:54:18.093Z,-6.24
2022-12-11T21:56:46.547Z,-6.23
2022-12-11T21:59:14.578Z,-6.23
2022-12-11T22:01:44.817Z,-6.18
2022-12-11T22:04:14.208Z,-6.15
2022-12-11T22:06:41.715Z,-6.22
2022-12-11T22:09:09.600Z,-6.24
2022-12-11T22:11:36.855Z,-6.25
2022-12-11T22:14:04.650Z,-6.23
2022-12-11T22:16:32.456Z,-6.27
2022-12-11T22:19:00.434Z,-6.29
2022-12-11T22:21:27.767Z,-6.39
2022-12-11T22:23:55.321Z,-6.48
2022-12-11T22:26:26.272Z,-6.50
2022-12-11T22:28:55.105Z,-6.59
2022-12-11T22:31:25.946Z,-6.66
2022-12-11T22:33:54.882Z,-6.76
2022-12-11T22:36:27.173Z,-6.98
2022-12-11T22:38:55.266Z,-6.97
2022-12-11T22:41:28.370Z,-6.97
2022-12-11T22:43:57.116Z,-7.05
2022-12-11T22:46:29.769Z,-7.09
2022-12-11T22:48:58.766Z,-7.14
2022-12-11T22:51:26.208Z,-7.19
2022-12-11T22:53:53.511Z,-7.23
2022-12-11T22:56:20.884Z,-7.30
2022-12-11T22:58:48.273Z,-7.43
2022-12-11T23:01:23.478Z,-7.47
2022-12-11T23:03:51.751Z,-7.55
2022-12-11T23:06:23.117Z,-7.52
2022-12-11T23:08:50.807Z,-7.55
2022-12-11T23:11:29.954Z,-7.51
2022-12-11T23:13:57.937Z,-7.48
2022-12-11T23:16:27.024Z,-7.64
2022-12-11T23:18:56.855Z,-7.66
2022-12-11T23:21:26.008Z,-7.61
2022-12-11T23:23:54.902Z,-7.60
2022-12-11T23:26:22.866Z,-7.57
2022-12-11T23:28:50.595Z,-7.55
2022-12-11T23:31:18.236Z,-7.58
2022-12-11T23:33:45.864Z,-7.61
2022-12-11T23:36:13.682Z,-7.65
2022-12-11T23:38:41.523Z,-7.68
2022-12-11T23:41:12.107Z,-7.75
2022-12-11T23:43:40.612Z,-7.82
2022-12-11T23:46:16.008Z,-7.87
2022-12-11T23:48:43.870Z,-7.96
2022-12-11T23:51:16.431Z,-7.99
2022-12-11T23:53:44.537Z,-8.09
2022-12-11T23:56:22.932Z,-8.35
2022-12-11T23:58:51.245Z,-8.39
